Etusivu
METAR-TAF:

METAR-TAF

Lentoasemat :

Kööpenhaminan lentoasema

Kööpenhamina, Tanska

Leveyspiiri: 55-37N, Pituuspiiri: 012-39E, korkeus merenpinnasta: 5 m

Tämänhetkinen sää

Tämä raportti tehtiin 14 minuuttia sitten, kello 21.20 UTC
Tuuli 8 kn idästä
Lämpötila 11°C
Kosteus 76%
Ilmanpaine 1010 hPa
Näkyvyys 10 km tai enemmän

METAR: EKCH 242120Z AUTO 09008KT 9999NDV NCD 11/07 Q1010 NOSIG

Aika: 23:34 (21:34 UTC)

Sääennuste

Tämä raportti tehtiin 4 tuntia ja 25 minuuttia sitten, kello 17.09 UTC
Ennuste voimassa 24. päivästä klo 18 UTC - 25. päivään klo 18 UTC
Tuuli 10 kn idästä
Näkyvyys 10 km tai enemmän
ei pilviä alle 1500 m:ssä eikä cumulonimbus-pilviä

TAF: EKCH 241709Z 2418/2518 10010KT CAVOK

Säähavainnot ja -ennusteet yli 4000 lentoasemalta (METAR- ja TAF-raportit).

Käytössä olevat sääasemat on merkitty karttaan keltaisilla ja punaisilla pisteillä.

Aseta hiiri pisteen päälle nähdäksesi sääaseman nimen.

Klikkaa sitten nähdäksesi säähavainnot ja -ennusteet.

Kartan vaihtaminen: klikkaa mustalla rastilla varustettuja vihreitä pisteitä, niin voit zoomata sisään; viivalla varustettua vihreää pistettä, niin voit zoomata ulos tai vihreitä nuolia, niin pääset viereisille kartoille.


METAR-TAF: